createdAt,value
2023-05-14T00:02:57.987Z,10.35
2023-05-14T00:08:00.292Z,10.70
2023-05-14T00:13:02.385Z,11.85
2023-05-14T00:18:04.669Z,10.77
2023-05-14T00:23:07.135Z,10.52
2023-05-14T00:28:09.369Z,9.90
2023-05-14T00:33:11.482Z,9.30
2023-05-14T00:38:17.129Z,9.70
2023-05-14T00:43:23.208Z,9.13
2023-05-14T00:48:25.645Z,9.63
2023-05-14T00:53:28.526Z,9.60
2023-05-14T00:58:30.881Z,9.98
2023-05-14T01:03:33.797Z,9.10
2023-05-14T01:08:45.036Z,10.30
2023-05-14T01:13:57.405Z,11.25
2023-05-14T01:19:00.892Z,9.63
2023-05-14T01:24:04.889Z,11.68
2023-05-14T01:29:19.606Z,11.10
2023-05-14T01:34:24.232Z,9.32
2023-05-14T01:39:26.827Z,8.73
2023-05-14T01:44:29.110Z,8.32
2023-05-14T01:49:31.219Z,8.45
2023-05-14T01:54:33.313Z,8.60
2023-05-14T01:59:35.721Z,8.05
2023-05-14T02:04:37.849Z,8.65
2023-05-14T02:09:41.038Z,8.43
2023-05-14T02:14:43.271Z,9.10
2023-05-14T02:19:45.484Z,9.60
2023-05-14T02:24:49.756Z,9.68
2023-05-14T02:29:53.264Z,8.73
2023-05-14T02:34:55.375Z,9.93
2023-05-14T02:39:57.476Z,8.80
2023-05-14T02:44:59.757Z,9.25
2023-05-14T02:50:02.079Z,8.63
2023-05-14T02:55:04.913Z,8.88
2023-05-14T03:00:09.174Z,9.43
2023-05-14T03:05:11.767Z,9.05
2023-05-14T03:10:13.836Z,9.52
2023-05-14T03:15:15.920Z,8.55
2023-05-14T03:20:18.198Z,8.75
2023-05-14T03:25:20.556Z,9.05
2023-05-14T03:30:23.039Z,9.48
2023-05-14T03:35:25.429Z,9.38
2023-05-14T03:40:27.551Z,9.50
2023-05-14T03:45:30.476Z,9.57
2023-05-14T03:50:34.390Z,11.50
2023-05-14T03:55:36.849Z,10.88
2023-05-14T04:00:39.379Z,10.60
2023-05-14T04:05:41.517Z,9.88
2023-05-14T04:10:43.707Z,8.82
2023-05-14T04:15:45.845Z,8.85
2023-05-14T04:20:48.740Z,8.68
2023-05-14T04:25:50.956Z,9.60
2023-05-14T04:30:53.093Z,10.43
2023-05-14T04:35:55.758Z,11.68
2023-05-14T04:40:58.387Z,11.38
2023-05-14T04:46:00.779Z,10.80
2023-05-14T04:51:04.455Z,9.50
2023-05-14T04:56:07.747Z,9.82
2023-05-14T05:01:10.068Z,9.10
2023-05-14T05:06:12.185Z,8.48
2023-05-14T05:11:14.291Z,7.97
2023-05-14T05:16:16.431Z,9.13
2023-05-14T05:21:18.522Z,9.63
2023-05-14T05:26:22.269Z,8.63
2023-05-14T05:31:24.567Z,9.57
2023-05-14T05:36:26.810Z,9.23
2023-05-14T05:41:30.149Z,8.93
2023-05-14T05:46:32.296Z,9.15
2023-05-14T05:51:34.368Z,7.88
2023-05-14T05:56:36.407Z,14.18
2023-05-14T06:01:38.553Z,9.70
2023-05-14T06:06:40.828Z,12.80
2023-05-14T06:11:42.937Z,11.52
2023-05-14T06:16:45.057Z,9.27
2023-05-14T06:21:47.271Z,10.02
2023-05-14T06:26:49.477Z,11.15
2023-05-14T06:31:51.578Z,10.50
2023-05-14T06:36:53.691Z,11.95
2023-05-14T06:41:55.811Z,8.82
2023-05-14T06:46:59.018Z,7.55
2023-05-14T06:52:01.196Z,7.82
2023-05-14T06:57:03.424Z,10.60
2023-05-14T07:02:05.496Z,9.02
2023-05-14T07:07:07.943Z,11.15
2023-05-14T07:12:09.989Z,11.07
2023-05-14T07:17:12.079Z,10.25
2023-05-14T07:22:14.200Z,9.60
2023-05-14T07:27:17.234Z,12.05
2023-05-14T07:32:19.294Z,10.05
2023-05-14T07:37:24.188Z,10.15
2023-05-14T07:42:35.834Z,8.37
2023-05-14T07:47:40.898Z,10.38
2023-05-14T07:52:43.093Z,10.98
2023-05-14T07:57:45.726Z,10.80
2023-05-14T08:02:49.095Z,11.40
2023-05-14T08:07:51.432Z,12.40
2023-05-14T08:12:53.530Z,12.95
2023-05-14T08:17:55.837Z,11.55
2023-05-14T08:22:58.194Z,10.77
2023-05-14T08:28:01.447Z,11.95
2023-05-14T08:33:03.647Z,13.73
2023-05-14T08:38:05.828Z,12.40
2023-05-14T08:43:10.624Z,15.57
2023-05-14T08:48:16.558Z,14.60
2023-05-14T08:53:18.645Z,14.98
2023-05-14T08:58:20.820Z,14.90
2023-05-14T09:03:23.936Z,17.17
2023-05-14T09:08:26.107Z,16.33
2023-05-14T09:13:28.404Z,15.35
2023-05-14T09:18:30.700Z,14.27
2023-05-14T09:23:34.491Z,15.23
2023-05-14T09:28:40.258Z,17.20
2023-05-14T09:33:43.189Z,17.50
2023-05-14T09:38:45.596Z,18.50
2023-05-14T09:43:47.707Z,16.35
2023-05-14T09:48:50.192Z,17.98
2023-05-14T09:53:54.348Z,16.98
2023-05-14T09:58:56.653Z,15.80
2023-05-14T10:03:59.323Z,16.02
2023-05-14T10:09:04.147Z,14.98
2023-05-14T10:14:18.697Z,14.93
2023-05-14T10:19:25.094Z,13.75
2023-05-14T10:24:27.824Z,13.60
2023-05-14T10:29:38.007Z,12.32
2023-05-14T10:34:41.505Z,14.30
2023-05-14T10:39:46.317Z,14.43
2023-05-14T10:44:58.530Z,11.35
2023-05-14T10:50:06.417Z,13.65
2023-05-14T10:55:09.221Z,12.57
2023-05-14T11:00:12.976Z,10.50
2023-05-14T11:05:17.778Z,12.13
2023-05-14T11:10:22.121Z,11.80
2023-05-14T11:15:29.197Z,14.20
2023-05-14T11:20:32.795Z,11.18
2023-05-14T11:25:37.972Z,13.52
2023-05-14T11:30:40.186Z,11.25
2023-05-14T11:35:45.420Z,11.23
2023-05-14T11:40:58.675Z,11.20
2023-05-14T11:46:00.823Z,10.23
2023-05-14T11:51:04.662Z,10.68
2023-05-14T11:56:09.527Z,11.38
2023-05-14T12:01:13.767Z,14.18
2023-05-14T12:06:15.950Z,10.88
2023-05-14T12:11:21.342Z,12.05
2023-05-14T12:16:23.614Z,10.35
2023-05-14T12:21:27.437Z,11.20
2023-05-14T12:26:33.848Z,12.63
2023-05-14T12:31:36.935Z,15.60
2023-05-14T12:36:39.170Z,16.08
2023-05-14T12:41:41.335Z,18.80
2023-05-14T12:46:43.455Z,15.98
2023-05-14T12:51:47.002Z,17.75
2023-05-14T12:56:49.067Z,15.57
2023-05-14T13:01:52.531Z,13.50
2023-05-14T13:06:54.624Z,12.80
2023-05-14T13:11:56.747Z,12.45
2023-05-14T13:16:58.884Z,11.50
2023-05-14T13:22:01.025Z,11.23
2023-05-14T13:27:03.148Z,9.65
2023-05-14T13:32:05.761Z,8.70
2023-05-14T13:37:07.825Z,8.18
2023-05-14T13:42:09.900Z,7.28
2023-05-14T13:47:12.048Z,5.90
2023-05-14T13:52:14.179Z,5.65
2023-05-14T13:57:16.265Z,6.82
2023-05-14T14:02:18.349Z,4.80
2023-05-14T14:07:21.232Z,4.30
2023-05-14T14:12:23.606Z,4.95
2023-05-14T14:17:25.718Z,5.85
2023-05-14T14:22:29.111Z,5.72
2023-05-14T14:27:32.281Z,4.57
2023-05-14T14:32:34.453Z,4.72
2023-05-14T14:37:37.142Z,3.88
2023-05-14T14:42:39.221Z,3.97
2023-05-14T14:47:46.360Z,4.10
2023-05-14T14:52:48.460Z,3.90
2023-05-14T14:57:50.584Z,3.40
2023-05-14T15:02:52.766Z,3.70
2023-05-14T15:07:55.091Z,3.85
2023-05-14T15:12:59.038Z,3.85
2023-05-14T15:18:02.153Z,3.90
2023-05-14T15:23:04.448Z,3.28
2023-05-14T15:28:07.676Z,3.92
2023-05-14T15:33:10.987Z,3.30
2023-05-14T15:38:13.193Z,3.90
2023-05-14T15:43:15.531Z,4.20
2023-05-14T15:48:17.735Z,4.57
2023-05-14T15:53:20.145Z,4.50
2023-05-14T15:58:22.211Z,4.32
2023-05-14T16:03:24.445Z,4.03
2023-05-14T16:08:26.680Z,3.67
2023-05-14T16:13:28.817Z,3.92
2023-05-14T16:18:30.911Z,3.80
2023-05-14T16:23:33.376Z,3.15
2023-05-14T16:28:35.612Z,3.13
2023-05-14T16:33:37.759Z,2.90
2023-05-14T16:38:52.331Z,4.30
2023-05-14T16:44:01.968Z,4.13
2023-05-14T16:49:04.144Z,4.95
2023-05-14T16:54:06.268Z,6.40
2023-05-14T16:59:08.368Z,4.68
2023-05-14T17:04:11.276Z,5.10
2023-05-14T17:09:13.476Z,5.43
2023-05-14T17:14:15.540Z,3.60
2023-05-14T17:19:17.629Z,4.22
2023-05-14T17:24:19.729Z,4.68
2023-05-14T17:29:21.788Z,5.05
2023-05-14T17:34:24.180Z,5.47
2023-05-14T17:39:26.482Z,5.40
2023-05-14T17:44:28.539Z,4.30
2023-05-14T17:49:30.850Z,5.43
2023-05-14T17:54:32.902Z,4.00
2023-05-14T17:59:34.949Z,6.05
2023-05-14T18:04:37.204Z,5.55
2023-05-14T18:09:39.438Z,5.93
2023-05-14T18:14:43.547Z,6.88
2023-05-14T18:19:47.108Z,7.93
2023-05-14T18:24:49.212Z,7.53
2023-05-14T18:29:51.780Z,7.38
2023-05-14T18:34:53.980Z,7.88
2023-05-14T18:39:56.145Z,8.73
2023-05-14T18:44:58.237Z,6.68
2023-05-14T18:50:02.042Z,7.13
2023-05-14T18:55:04.876Z,6.30
2023-05-14T19:00:09.338Z,8.45
2023-05-14T19:05:11.410Z,9.30
2023-05-14T19:10:13.982Z,7.60
2023-05-14T19:15:16.158Z,9.68
2023-05-14T19:20:18.252Z,9.23
2023-05-14T19:25:20.417Z,8.05
2023-05-14T19:30:23.624Z,8.00
2023-05-14T19:35:26.150Z,7.65
2023-05-14T19:40:28.787Z,7.47
2023-05-14T19:45:30.844Z,7.78
2023-05-14T19:50:33.848Z,6.55
2023-05-14T19:55:35.974Z,7.35
2023-05-14T20:00:38.062Z,6.30
2023-05-14T20:05:40.147Z,5.88
2023-05-14T20:10:44.603Z,5.43
2023-05-14T20:15:46.745Z,5.68
2023-05-14T20:20:49.134Z,4.80
2023-05-14T20:25:51.793Z,7.35
2023-05-14T20:30:54.873Z,5.55
2023-05-14T20:35:57.237Z,4.50
2023-05-14T20:40:59.303Z,4.22
2023-05-14T20:46:01.454Z,5.90
2023-05-14T20:51:06.468Z,5.47
2023-05-14T20:56:08.563Z,8.70
2023-05-14T21:01:10.748Z,5.32
2023-05-14T21:06:12.958Z,5.47
2023-05-14T21:11:15.111Z,5.35
2023-05-14T21:16:17.388Z,4.85
2023-05-14T21:21:19.485Z,5.07
2023-05-14T21:26:24.480Z,5.50
2023-05-14T21:31:26.761Z,4.13
2023-05-14T21:36:29.115Z,5.65
2023-05-14T21:41:32.244Z,5.20
2023-05-14T21:46:34.437Z,6.15
2023-05-14T21:51:36.547Z,5.82
2023-05-14T21:56:38.696Z,4.30
2023-05-14T22:02:00.706Z,5.38
2023-05-14T22:07:03.344Z,5.45
2023-05-14T22:12:06.740Z,5.35
2023-05-14T22:17:08.799Z,6.05
2023-05-14T22:22:10.876Z,5.32
2023-05-14T22:27:13.017Z,6.57
2023-05-14T22:32:15.116Z,5.60
2023-05-14T22:37:17.512Z,5.25
2023-05-14T22:42:20.416Z,5.28
2023-05-14T22:47:22.592Z,4.80
2023-05-14T22:52:25.943Z,4.68
2023-05-14T22:57:28.113Z,4.80
2023-05-14T23:02:30.324Z,5.70
2023-05-14T23:07:32.460Z,5.22
2023-05-14T23:12:34.640Z,4.65
2023-05-14T23:17:37.572Z,4.80
2023-05-14T23:22:40.899Z,4.05
2023-05-14T23:27:43.020Z,3.25
2023-05-14T23:32:45.135Z,4.10
2023-05-14T23:37:49.528Z,5.72
2023-05-14T23:42:51.746Z,5.38
2023-05-14T23:47:54.876Z,4.95
2023-05-14T23:52:57.199Z,5.30
2023-05-14T23:57:59.400Z,4.35
